Burlington Executive Airpark

CZBA · 安大略, 加拿大

使用的METAR站距离机场16 NM。
罗盘
风向 的 风向 200° Burlington Executive Airpark 9/27
风: 7 kt, 3 beaufort

4 kt

6 kt
改变
0 ft 6.000 12.000 18.000 24.000 30.000
Cloud Cloud
FEW 14.000
Cloud Cloud Cloud Cloud
SCT 25.000
METAR CYHM 011000Z 20007KT 15SM FEW140 SCT250 M03/M05 A3038 RMK AC1CI2 SLP301

METAR Burlington Executive Airpark - CZBA

Burlington Executive Airpark是,加拿大中的小机场。 该机场位于纬度43,44123和经度-79,85004。 该机场有2条跑道: 9/27 和 14/32. 本场的ICAO机场代码为CZBA。 机场在Toronto FIR中。

该航空气象观测是针对John C. Munro Hamilton International Airport在2024年3月1日 05:00, 当地时间进行的。

机场观察

风向为200°,速度为7 kt。

可见度为15 mi。

有几云在14.000 ft的高度 和 疏云,零星散落的云朵在25.000 ft的高度。 没有观察到天花板。

温度为-3 °C,阵风为-9 °C。 露点为-5 °C,相对湿度为86%。 海平面上的气压为30,38 inHg (QNH)。

白天

今天,太阳从06:54升起,在18:08降落。 这适用于Burlington Executive Airpark,世界夏令时可能有所不同。 当地时间与世界标准时间之间的时差为-5 小时。 当前,没有夏令时有效。

公司介绍

在这个机场,你可以找到飞行学校。 本场上唯一已知的公司是Spectrum Airways。

体会

到Vliegles.nl去找飞行课程,跳伞和其他飞行体验。 浏览页面,了解Burlington Executive Airpark附近所有可用的活动。 你也可以使用搜索功能来寻找你所在地附近的特定飞行课程、跳伞或其他飞行体验。

跑道

Id 标题 侧风 逆风 侧风 %
9/27 077°-257° 6 kt 4 kt 84 %
14/32 130°-310° 7 kt 2 kt 94 %

逆风成分最大的方向会被突出显示,并用于横风计算。 这并不一定意味着这个方向在使用。

乌云

14.000 ft FEW 几云
25.000 ft SCT 疏云,零星散落的云朵

温度 & 天气

温度 -3 °C
露点 -5 °C
相对湿度 86%
风寒 -9 °C
Kp-index 1 (0-9)

评论

SLP301海平面压力为30,42 inHg (30,42 inHg)
AC1CI2

白天

日出
06:54 (48m)
中午
12:31
日落
18:09

小工具

你想在你的网站上有一个关于Burlington Executive Airpark的当前航空天气(METAR)的小部件吗?

显示HTML代码
?>